createdAt,value
2023-02-06T00:00:49.839Z,45.30
2023-02-06T00:02:58.616Z,42.78
2023-02-06T00:05:05.533Z,41.03
2023-02-06T00:07:12.714Z,42.33
2023-02-06T00:09:19.588Z,42.83
2023-02-06T00:11:26.923Z,43.55
2023-02-06T00:13:33.798Z,45.13
2023-02-06T00:15:40.971Z,47.15
2023-02-06T00:17:47.892Z,49.00
2023-02-06T00:19:56.730Z,48.65
2023-02-06T00:22:03.607Z,45.33
2023-02-06T00:24:11.089Z,43.55
2023-02-06T00:26:18.069Z,44.92
2023-02-06T00:28:25.349Z,46.63
2023-02-06T00:30:32.524Z,46.90
2023-02-06T00:32:39.775Z,44.05
2023-02-06T00:34:46.640Z,45.83
2023-02-06T00:36:55.564Z,49.17
2023-02-06T00:39:03.824Z,49.00
2023-02-06T00:41:11.009Z,50.05
2023-02-06T00:43:17.866Z,49.88
2023-02-06T00:45:24.806Z,50.42
2023-02-06T00:47:31.934Z,50.20
2023-02-06T00:49:38.815Z,48.80
2023-02-06T00:51:45.889Z,47.38
2023-02-06T00:53:56.519Z,49.63
2023-02-06T00:56:03.683Z,51.75
2023-02-06T00:58:10.804Z,52.92
2023-02-06T01:00:18.564Z,51.08
2023-02-06T01:02:25.938Z,49.35
2023-02-06T01:04:32.819Z,51.40
2023-02-06T01:06:40.202Z,50.25
2023-02-06T01:08:47.485Z,50.42
2023-02-06T01:10:56.466Z,54.90
2023-02-06T01:13:03.642Z,55.42
2023-02-06T01:15:12.319Z,58.35
2023-02-06T01:17:19.712Z,59.20
2023-02-06T01:19:26.924Z,58.67
2023-02-06T01:21:34.364Z,61.00
2023-02-06T01:23:42.159Z,58.05
2023-02-06T01:25:49.029Z,61.05
2023-02-06T01:27:57.892Z,61.47
2023-02-06T01:30:04.776Z,61.50
2023-02-06T01:32:11.940Z,63.55
2023-02-06T01:34:18.839Z,65.47
2023-02-06T01:36:26.114Z,62.72
2023-02-06T01:38:32.991Z,63.20
2023-02-06T01:40:41.759Z,65.70
2023-02-06T01:42:48.787Z,65.72
2023-02-06T01:45:24.795Z,61.63
2023-02-06T01:47:33.818Z,62.00
2023-02-06T01:49:44.380Z,61.85
2023-02-06T01:51:53.303Z,57.55
2023-02-06T01:54:03.401Z,56.70
2023-02-06T01:56:12.016Z,54.95
2023-02-06T01:58:28.006Z,49.80
2023-02-06T02:00:35.419Z,51.67
2023-02-06T02:02:49.319Z,49.92
2023-02-06T02:04:56.768Z,45.97
2023-02-06T02:07:11.017Z,44.53
2023-02-06T02:09:18.610Z,44.90
2023-02-06T02:11:30.197Z,43.88
2023-02-06T02:13:39.833Z,45.08
2023-02-06T02:15:53.728Z,44.90
2023-02-06T02:18:11.708Z,45.50
2023-02-06T02:20:51.254Z,43.90
2023-02-06T02:23:11.489Z,40.95
2023-02-06T02:25:52.823Z,43.85
2023-02-06T02:28:27.195Z,40.00
2023-02-06T02:31:04.327Z,37.97
2023-02-06T02:33:36.851Z,33.60
2023-02-06T02:35:54.756Z,31.52
2023-02-06T02:38:15.587Z,33.55
2023-02-06T02:40:30.510Z,27.88
2023-02-06T02:42:43.058Z,32.58
2023-02-06T02:44:53.777Z,29.95
2023-02-06T02:47:04.025Z,27.55
2023-02-06T02:49:15.453Z,28.25
2023-02-06T02:51:24.527Z,28.88
2023-02-06T02:53:32.119Z,27.90
2023-02-06T02:55:39.149Z,27.48
2023-02-06T02:57:50.628Z,25.80
2023-02-06T03:00:00.471Z,28.92
2023-02-06T03:02:14.483Z,29.90
2023-02-06T03:04:25.742Z,27.88
2023-02-06T03:07:16.992Z,26.60
2023-02-06T03:09:35.963Z,27.55
2023-02-06T03:11:47.396Z,27.05
2023-02-06T03:16:08.944Z,27.90
2023-02-06T03:18:21.177Z,29.35
2023-02-06T03:20:28.874Z,27.95
2023-02-06T03:22:39.894Z,28.75
2023-02-06T03:24:47.482Z,26.38
2023-02-06T03:26:59.682Z,26.70
2023-02-06T03:29:08.867Z,26.40
2023-02-06T03:31:20.207Z,26.92
2023-02-06T03:33:34.027Z,26.95
2023-02-06T03:35:42.749Z,25.92
2023-02-06T03:37:52.232Z,29.10
2023-02-06T03:40:01.412Z,28.63
2023-02-06T03:42:10.126Z,27.83
2023-02-06T03:44:21.916Z,26.95
2023-02-06T03:46:31.354Z,28.15
2023-02-06T03:48:41.350Z,26.58
2023-02-06T03:50:51.347Z,27.20
2023-02-06T03:53:03.188Z,28.80
2023-02-06T03:55:14.007Z,28.85
2023-02-06T03:57:23.236Z,26.58
2023-02-06T03:59:30.266Z,27.65
2023-02-06T04:01:37.767Z,28.30
2023-02-06T04:03:45.095Z,29.20
2023-02-06T04:05:52.476Z,26.77
2023-02-06T04:08:01.143Z,27.88
2023-02-06T04:10:08.839Z,28.40
2023-02-06T04:12:16.411Z,27.55
2023-02-06T04:14:23.868Z,27.38
2023-02-06T04:16:31.094Z,27.83
2023-02-06T04:18:38.338Z,27.65
2023-02-06T04:20:45.309Z,27.08
2023-02-06T04:22:52.803Z,28.33
2023-02-06T04:25:01.414Z,27.17
2023-02-06T04:27:08.799Z,27.73
2023-02-06T04:29:15.675Z,26.55
2023-02-06T04:31:22.824Z,26.67
2023-02-06T04:33:29.788Z,26.17
2023-02-06T04:35:37.649Z,27.45
2023-02-06T04:37:44.606Z,27.23
2023-02-06T04:39:52.049Z,26.88
2023-02-06T04:42:00.765Z,26.20
2023-02-06T04:44:08.148Z,25.77
2023-02-06T04:46:15.089Z,26.05
2023-02-06T04:48:22.205Z,26.33
2023-02-06T04:50:30.358Z,24.70
2023-02-06T04:52:37.549Z,24.55
2023-02-06T04:54:44.464Z,24.15
2023-02-06T04:56:51.732Z,26.15
2023-02-06T04:59:00.315Z,25.10
2023-02-06T05:01:07.634Z,26.90
2023-02-06T05:03:14.573Z,26.15
2023-02-06T05:05:21.449Z,24.42
2023-02-06T05:07:28.664Z,25.73
2023-02-06T05:09:35.507Z,23.25
2023-02-06T05:11:42.783Z,25.75
2023-02-06T05:13:49.772Z,24.70
2023-02-06T05:16:02.492Z,24.92
2023-02-06T05:18:09.959Z,23.95
2023-02-06T05:20:19.445Z,24.52
2023-02-06T05:22:26.787Z,21.55
2023-02-06T05:24:33.914Z,22.20
2023-02-06T05:26:41.144Z,21.40
2023-02-06T05:28:48.048Z,20.77
2023-02-06T05:30:55.491Z,21.95
2023-02-06T05:33:04.581Z,21.48
2023-02-06T05:35:12.274Z,21.00
2023-02-06T05:37:19.150Z,20.92
2023-02-06T05:39:26.741Z,20.65
2023-02-06T05:41:33.565Z,20.20
2023-02-06T05:43:40.955Z,19.58
2023-02-06T05:45:47.829Z,19.58
2023-02-06T05:47:55.416Z,18.30
2023-02-06T05:50:03.988Z,18.85
2023-02-06T05:52:11.522Z,19.70
2023-02-06T05:54:19.473Z,19.50
2023-02-06T05:56:26.608Z,19.42
2023-02-06T05:58:33.580Z,19.40
2023-02-06T06:00:40.867Z,18.63
2023-02-06T06:02:47.790Z,19.30
2023-02-06T06:04:55.268Z,17.35
2023-02-06T06:07:04.103Z,16.25
2023-02-06T06:09:11.342Z,15.40
2023-02-06T06:11:18.674Z,15.50
2023-02-06T06:13:25.953Z,16.00
2023-02-06T06:15:32.938Z,15.77
2023-02-06T06:17:39.965Z,15.50
2023-02-06T06:19:46.887Z,14.57
2023-02-06T06:21:54.078Z,15.73
2023-02-06T06:24:02.939Z,14.23
2023-02-06T06:26:10.068Z,14.60
2023-02-06T06:28:17.392Z,15.32
2023-02-06T06:30:24.586Z,14.32
2023-02-06T06:32:31.647Z,15.35
2023-02-06T06:34:38.742Z,14.82
2023-02-06T06:36:45.617Z,15.20
2023-02-06T06:38:52.698Z,16.20
2023-02-06T06:41:01.400Z,14.48
2023-02-06T06:43:08.531Z,15.18
2023-02-06T06:45:15.479Z,16.38
2023-02-06T06:47:22.788Z,17.83
2023-02-06T06:49:29.731Z,18.75
2023-02-06T06:51:37.118Z,16.63
2023-02-06T06:53:43.998Z,14.65
2023-02-06T06:55:51.225Z,16.15
2023-02-06T06:57:59.838Z,16.15
2023-02-06T07:00:08.097Z,15.25
2023-02-06T07:02:15.003Z,15.80
2023-02-06T07:04:22.151Z,15.85
2023-02-06T07:06:29.033Z,17.35
2023-02-06T07:08:37.028Z,17.83
2023-02-06T07:10:43.952Z,17.63
2023-02-06T07:12:54.448Z,17.55
2023-02-06T07:15:03.198Z,16.17
2023-02-06T07:17:10.573Z,17.55
2023-02-06T07:19:17.441Z,16.77
2023-02-06T07:21:24.676Z,16.75
2023-02-06T07:23:31.537Z,16.08
2023-02-06T07:25:38.707Z,14.88
2023-02-06T07:27:45.688Z,14.65
2023-02-06T07:29:52.942Z,13.55
2023-02-06T07:32:01.614Z,14.18
2023-02-06T07:34:08.877Z,14.13
2023-02-06T07:36:16.942Z,14.15
2023-02-06T07:38:24.330Z,13.30
2023-02-06T07:40:43.233Z,14.80
2023-02-06T07:42:51.630Z,14.98
2023-02-06T07:45:05.946Z,14.43
2023-02-06T07:47:15.122Z,15.05
2023-02-06T07:49:21.998Z,15.50
2023-02-06T07:51:29.230Z,15.60
2023-02-06T07:53:36.328Z,14.32
2023-02-06T07:55:43.594Z,16.23
2023-02-06T07:57:50.520Z,14.85
2023-02-06T07:59:57.665Z,15.35
2023-02-06T08:02:04.575Z,13.45
2023-02-06T08:04:14.472Z,13.82
2023-02-06T08:06:24.155Z,12.48
2023-02-06T08:08:31.743Z,12.40
2023-02-06T08:10:40.786Z,13.63
2023-02-06T08:12:48.153Z,13.73
2023-02-06T08:14:55.141Z,14.75
2023-02-06T08:17:02.271Z,13.98
2023-02-06T08:19:11.943Z,14.02
2023-02-06T08:21:22.018Z,14.20
2023-02-06T08:23:28.837Z,14.35
2023-02-06T08:25:36.355Z,13.57
2023-02-06T08:27:43.419Z,13.88
2023-02-06T08:29:51.403Z,13.52
2023-02-06T08:31:58.327Z,13.20
2023-02-06T08:34:05.614Z,13.07
2023-02-06T08:36:13.307Z,12.75
2023-02-06T08:38:22.480Z,12.48
2023-02-06T08:40:29.353Z,12.63
2023-02-06T08:42:37.050Z,12.57
2023-02-06T08:44:43.974Z,12.95
2023-02-06T08:46:58.807Z,13.13
2023-02-06T08:49:10.269Z,12.82
2023-02-06T08:51:18.067Z,12.98
2023-02-06T08:53:26.988Z,14.25
2023-02-06T08:55:34.334Z,13.02
2023-02-06T08:57:41.249Z,13.15
2023-02-06T08:59:48.431Z,13.45
2023-02-06T09:01:55.304Z,12.98
2023-02-06T09:04:03.974Z,13.75
2023-02-06T09:06:11.000Z,12.60
2023-02-06T09:08:18.128Z,12.35
2023-02-06T09:10:27.993Z,13.32
2023-02-06T09:12:35.512Z,13.48
2023-02-06T09:14:43.150Z,12.80
2023-02-06T09:16:50.489Z,12.15
2023-02-06T09:19:02.399Z,12.68
2023-02-06T09:21:12.542Z,12.60
2023-02-06T09:23:20.326Z,13.70
2023-02-06T09:25:29.300Z,13.40
2023-02-06T09:27:36.176Z,12.73
2023-02-06T09:29:43.407Z,13.48
2023-02-06T09:31:50.494Z,14.10
2023-02-06T09:33:57.768Z,13.63
2023-02-06T09:36:09.249Z,12.55
2023-02-06T09:40:26.074Z,12.50
2023-02-06T09:42:38.067Z,13.10
2023-02-06T09:44:49.958Z,13.02
2023-02-06T09:47:01.342Z,12.77
2023-02-06T09:49:17.459Z,12.73
2023-02-06T09:51:35.359Z,12.20
2023-02-06T09:53:50.636Z,12.68
2023-02-06T09:56:05.287Z,12.38
2023-02-06T09:58:24.196Z,12.10
2023-02-06T10:00:42.794Z,13.18
2023-02-06T10:03:16.736Z,12.35
2023-02-06T10:05:30.030Z,13.27
2023-02-06T10:07:59.568Z,13.25
2023-02-06T10:10:09.940Z,13.18
2023-02-06T10:12:21.268Z,13.13
2023-02-06T10:16:45.525Z,12.82
2023-02-06T10:18:55.857Z,13.73
2023-02-06T10:21:07.658Z,12.95
2023-02-06T10:23:21.496Z,12.05
2023-02-06T10:25:33.303Z,13.48
2023-02-06T10:27:44.205Z,12.32
2023-02-06T10:29:53.173Z,12.73
2023-02-06T10:32:09.561Z,13.93
2023-02-06T10:34:37.908Z,13.02
2023-02-06T10:36:56.714Z,13.35
2023-02-06T10:39:34.914Z,13.20
2023-02-06T10:41:50.766Z,13.88
2023-02-06T10:44:02.402Z,13.32
2023-02-06T10:48:39.339Z,14.18
2023-02-06T10:52:59.287Z,14.00
2023-02-06T10:55:16.856Z,14.52
2023-02-06T10:57:28.919Z,13.57
2023-02-06T10:59:38.492Z,14.65
2023-02-06T11:01:50.292Z,15.95
2023-02-06T11:04:03.102Z,15.75
2023-02-06T11:06:14.065Z,17.25
2023-02-06T11:08:25.786Z,18.90
2023-02-06T11:10:34.853Z,19.50
2023-02-06T11:12:45.131Z,19.23
2023-02-06T11:14:53.885Z,19.55
2023-02-06T11:17:04.051Z,19.20
2023-02-06T11:19:23.368Z,18.77
2023-02-06T11:21:55.546Z,19.60
2023-02-06T11:24:15.109Z,17.80
2023-02-06T11:26:24.287Z,19.38
2023-02-06T11:28:32.032Z,19.52
2023-02-06T11:30:40.603Z,19.77
2023-02-06T11:33:03.662Z,19.10
2023-02-06T11:35:25.270Z,18.52
2023-02-06T11:37:37.728Z,18.90
2023-02-06T11:39:44.600Z,19.88
2023-02-06T11:42:00.995Z,18.42
2023-02-06T11:44:09.098Z,19.58
2023-02-06T11:46:21.538Z,19.83
2023-02-06T11:48:44.402Z,24.45
2023-02-06T11:50:58.187Z,26.77
2023-02-06T11:53:12.588Z,27.02
2023-02-06T11:55:30.013Z,30.30
2023-02-06T11:57:37.688Z,38.95
2023-02-06T11:59:56.700Z,31.98
2023-02-06T12:02:06.729Z,32.45
2023-02-06T12:04:25.721Z,39.47
2023-02-06T12:06:36.216Z,34.08
2023-02-06T12:08:52.630Z,37.15
2023-02-06T12:11:04.366Z,45.38
2023-02-06T12:15:46.481Z,52.67
2023-02-06T12:17:56.518Z,46.85
2023-02-06T12:20:09.447Z,41.20
2023-02-06T12:22:20.850Z,40.03
2023-02-06T12:24:33.264Z,36.45
2023-02-06T12:26:41.537Z,43.65
2023-02-06T12:28:58.349Z,41.47
2023-02-06T12:31:10.267Z,43.78
2023-02-06T12:33:20.592Z,40.42
2023-02-06T12:35:37.651Z,38.45
2023-02-06T12:37:51.028Z,36.50
2023-02-06T12:39:58.043Z,41.55
2023-02-06T12:42:21.518Z,42.40
2023-02-06T12:44:35.603Z,39.15
2023-02-06T12:46:43.974Z,35.60
2023-02-06T12:48:56.206Z,35.40
2023-02-06T12:51:15.638Z,34.55
2023-02-06T12:53:31.119Z,34.58
2023-02-06T12:55:41.418Z,36.67
2023-02-06T12:57:49.009Z,34.58
2023-02-06T13:00:30.665Z,35.83
2023-02-06T13:03:05.437Z,35.90
2023-02-06T13:05:23.177Z,35.67
2023-02-06T13:07:33.960Z,36.30
2023-02-06T13:09:56.622Z,33.50
2023-02-06T13:12:16.969Z,32.72
2023-02-06T13:14:27.132Z,32.88
2023-02-06T13:16:52.936Z,31.27
2023-02-06T13:19:06.668Z,32.00
2023-02-06T13:21:21.633Z,31.48
2023-02-06T13:23:30.558Z,31.35
2023-02-06T13:25:55.198Z,31.85
2023-02-06T13:28:03.986Z,31.95
2023-02-06T13:30:44.765Z,30.83
2023-02-06T13:32:54.323Z,31.23
2023-02-06T13:35:10.060Z,31.02
2023-02-06T13:37:37.565Z,30.20
2023-02-06T13:39:51.299Z,30.63
2023-02-06T13:41:59.044Z,31.65
2023-02-06T13:44:12.577Z,30.35
2023-02-06T13:46:22.913Z,31.95
2023-02-06T13:48:50.951Z,32.30
2023-02-06T13:51:07.042Z,31.13
2023-02-06T13:53:53.697Z,29.85
2023-02-06T13:56:17.212Z,34.10
2023-02-06T13:58:43.034Z,31.13
2023-02-06T14:00:53.694Z,38.33
2023-02-06T14:03:09.529Z,40.03
2023-02-06T14:05:20.037Z,37.70
2023-02-06T14:08:11.445Z,35.80
2023-02-06T14:10:50.857Z,32.20
2023-02-06T14:13:14.719Z,32.47
2023-02-06T14:15:31.120Z,36.35
2023-02-06T14:18:01.279Z,35.72
2023-02-06T14:20:19.475Z,36.33
2023-02-06T14:22:33.089Z,33.15
2023-02-06T14:25:05.284Z,32.38
2023-02-06T14:27:34.962Z,31.05
2023-02-06T14:29:51.407Z,33.55
2023-02-06T14:32:23.453Z,35.05
2023-02-06T14:34:42.606Z,36.72
2023-02-06T14:37:11.187Z,34.33
2023-02-06T14:39:52.211Z,35.92
2023-02-06T14:41:59.545Z,45.03
2023-02-06T14:44:06.606Z,44.63
2023-02-06T14:46:18.007Z,38.15
2023-02-06T14:48:28.728Z,38.28
2023-02-06T14:50:41.370Z,34.33
2023-02-06T14:52:50.238Z,33.28
2023-02-06T14:54:58.243Z,37.17
2023-02-06T14:57:06.515Z,37.17
2023-02-06T14:59:21.015Z,40.45
2023-02-06T15:01:32.731Z,41.53
2023-02-06T15:03:41.146Z,41.58
2023-02-06T15:05:48.499Z,41.25
2023-02-06T15:08:02.027Z,40.17
2023-02-06T15:10:12.028Z,41.15
2023-02-06T15:12:22.654Z,36.58
2023-02-06T15:14:31.410Z,35.92
2023-02-06T15:16:51.904Z,37.67
2023-02-06T15:19:13.995Z,36.28
2023-02-06T15:21:23.779Z,35.67
2023-02-06T15:23:40.848Z,35.85
2023-02-06T15:25:57.959Z,37.38
2023-02-06T15:28:07.583Z,36.08
2023-02-06T15:30:22.622Z,37.45
2023-02-06T15:32:36.790Z,35.95
2023-02-06T15:34:43.834Z,35.25
2023-02-06T15:36:50.710Z,36.00
2023-02-06T15:38:57.787Z,34.55
2023-02-06T15:41:07.495Z,33.45
2023-02-06T15:43:18.707Z,33.00
2023-02-06T15:45:27.805Z,35.00
2023-02-06T15:47:37.317Z,34.63
2023-02-06T15:49:46.224Z,32.97
2023-02-06T15:51:59.461Z,34.50
2023-02-06T15:54:11.879Z,33.95
2023-02-06T15:56:26.117Z,33.13
2023-02-06T15:58:35.182Z,32.33
2023-02-06T16:00:42.652Z,33.88
2023-02-06T16:02:51.747Z,33.42
2023-02-06T16:04:59.039Z,34.42
2023-02-06T16:07:15.334Z,31.50
2023-02-06T16:09:25.232Z,30.73
2023-02-06T16:11:51.974Z,32.35
2023-02-06T16:13:59.776Z,31.77
2023-02-06T16:16:10.853Z,33.22
2023-02-06T16:18:32.927Z,31.65
2023-02-06T16:22:47.896Z,32.35
2023-02-06T16:24:57.390Z,33.60
2023-02-06T16:27:23.103Z,32.22
2023-02-06T16:29:34.682Z,32.60
2023-02-06T16:31:44.109Z,30.60
2023-02-06T16:33:55.136Z,33.05
2023-02-06T16:36:02.319Z,31.05
2023-02-06T16:38:13.325Z,31.20
2023-02-06T16:40:21.082Z,31.75
2023-02-06T16:42:29.533Z,32.85
2023-02-06T16:44:44.710Z,34.08
2023-02-06T16:46:52.042Z,31.23
2023-02-06T16:49:02.875Z,32.67
2023-02-06T16:51:11.380Z,33.53
2023-02-06T16:53:22.972Z,32.67
2023-02-06T16:55:30.657Z,32.00
2023-02-06T16:57:42.397Z,30.45
2023-02-06T16:59:49.303Z,31.90
2023-02-06T17:01:56.807Z,32.83
2023-02-06T17:04:05.322Z,33.97
2023-02-06T17:06:17.423Z,34.58
2023-02-06T17:08:28.799Z,33.08
2023-02-06T17:10:39.205Z,30.77
2023-02-06T17:12:49.000Z,34.13
2023-02-06T17:14:57.563Z,32.90
2023-02-06T17:17:04.542Z,33.88
2023-02-06T17:19:16.693Z,33.58
2023-02-06T17:21:28.620Z,33.70
2023-02-06T17:23:36.283Z,34.65
2023-02-06T17:25:44.275Z,31.92
2023-02-06T17:27:51.480Z,32.88
2023-02-06T17:29:58.630Z,36.28
2023-02-06T17:32:07.181Z,32.95
2023-02-06T17:34:15.866Z,33.33
2023-02-06T17:36:30.425Z,32.60
2023-02-06T17:38:37.502Z,35.22
2023-02-06T17:40:44.903Z,33.88
2023-02-06T17:42:52.339Z,32.10
2023-02-06T17:44:59.409Z,33.33
2023-02-06T17:47:06.236Z,37.72
2023-02-06T17:49:15.105Z,37.38
2023-02-06T17:51:22.085Z,37.58
2023-02-06T17:53:29.264Z,36.75
2023-02-06T17:55:37.724Z,36.33
2023-02-06T17:57:44.890Z,36.53
2023-02-06T17:59:54.854Z,37.15
2023-02-06T18:02:02.392Z,37.15
2023-02-06T18:04:09.574Z,38.60
2023-02-06T18:06:19.060Z,36.47
2023-02-06T18:08:25.936Z,37.40
2023-02-06T18:10:33.118Z,35.10
2023-02-06T18:12:40.554Z,35.70
2023-02-06T18:14:49.020Z,35.92
2023-02-06T18:16:55.975Z,36.80
2023-02-06T18:19:03.059Z,38.20
2023-02-06T18:21:10.100Z,36.75
2023-02-06T18:23:20.251Z,37.25
2023-02-06T18:25:27.158Z,38.55
2023-02-06T18:27:34.254Z,36.80
2023-02-06T18:29:49.797Z,38.03
2023-02-06T18:31:57.223Z,35.50
2023-02-06T18:34:05.578Z,33.97
2023-02-06T18:36:13.118Z,33.42
2023-02-06T18:38:22.448Z,33.45
2023-02-06T18:40:30.686Z,37.30
2023-02-06T18:42:55.044Z,39.42
2023-02-06T18:45:04.032Z,39.55
2023-02-06T18:47:11.139Z,35.70
2023-02-06T18:49:18.473Z,40.08
2023-02-06T18:51:25.404Z,37.53
2023-02-06T18:53:34.169Z,37.17
2023-02-06T18:55:41.557Z,36.55
2023-02-06T18:57:49.155Z,37.72
2023-02-06T18:59:56.032Z,40.20
2023-02-06T19:02:03.056Z,41.10
2023-02-06T19:04:10.334Z,37.70
2023-02-06T19:06:18.905Z,35.95
2023-02-06T19:08:26.030Z,41.08
2023-02-06T19:10:34.880Z,40.38
2023-02-06T19:12:42.288Z,42.08
2023-02-06T19:14:49.268Z,43.22
2023-02-06T19:16:56.843Z,43.10
2023-02-06T19:19:03.733Z,42.00
2023-02-06T19:21:12.042Z,42.30
2023-02-06T19:23:18.969Z,43.25
2023-02-06T19:25:26.393Z,41.53
2023-02-06T19:27:34.969Z,41.90
2023-02-06T19:29:42.461Z,42.67
2023-02-06T19:31:49.798Z,42.60
2023-02-06T19:33:58.674Z,39.28
2023-02-06T19:36:09.943Z,38.28
2023-02-06T19:38:17.226Z,37.72
2023-02-06T19:40:24.355Z,40.45
2023-02-06T19:42:31.589Z,39.67
2023-02-06T19:44:40.866Z,39.83
2023-02-06T19:46:48.156Z,42.50
2023-02-06T19:48:55.947Z,39.72
2023-02-06T19:51:07.188Z,41.03
2023-02-06T19:53:16.839Z,41.53
2023-02-06T19:55:24.095Z,42.38
2023-02-06T19:57:30.854Z,43.22
2023-02-06T19:59:39.795Z,42.15
2023-02-06T20:01:46.721Z,40.08
2023-02-06T20:03:54.459Z,43.47
2023-02-06T20:06:04.814Z,41.03
2023-02-06T20:08:12.354Z,41.30
2023-02-06T20:10:19.331Z,40.60
2023-02-06T20:12:26.900Z,40.17
2023-02-06T20:14:34.260Z,39.30
2023-02-06T20:16:44.650Z,39.50
2023-02-06T20:18:51.801Z,41.45
2023-02-06T20:20:58.981Z,41.58
2023-02-06T20:23:06.316Z,40.45
2023-02-06T20:25:13.808Z,42.42
2023-02-06T20:27:21.348Z,42.60
2023-02-06T20:29:30.214Z,42.60
2023-02-06T20:31:38.456Z,42.70
2023-02-06T20:33:47.216Z,41.35
2023-02-06T20:35:54.435Z,38.58
2023-02-06T20:38:01.465Z,35.75
2023-02-06T20:40:09.351Z,40.95
2023-02-06T20:42:16.381Z,41.47
2023-02-06T20:44:24.330Z,40.28
2023-02-06T20:46:33.655Z,39.88
2023-02-06T20:48:40.943Z,41.00
2023-02-06T20:50:49.501Z,40.95
2023-02-06T20:52:56.636Z,41.38
2023-02-06T20:55:03.524Z,41.75
2023-02-06T20:57:10.691Z,42.13
2023-02-06T20:59:18.796Z,43.10
2023-02-06T21:01:28.200Z,40.28
2023-02-06T21:03:35.105Z,41.47
2023-02-06T21:05:42.293Z,42.90
2023-02-06T21:07:50.900Z,41.13
2023-02-06T21:09:58.399Z,39.05
2023-02-06T21:12:05.420Z,39.25
2023-02-06T21:14:13.468Z,40.47
2023-02-06T21:16:20.444Z,40.70
2023-02-06T21:18:29.115Z,43.92
2023-02-06T21:20:36.363Z,47.00
2023-02-06T21:22:43.682Z,45.28
2023-02-06T21:24:52.454Z,41.53
2023-02-06T21:26:59.687Z,41.47
2023-02-06T21:29:07.124Z,45.00
2023-02-06T21:31:17.904Z,48.88
2023-02-06T21:33:24.918Z,47.72
2023-02-06T21:35:34.711Z,46.28
2023-02-06T21:37:41.841Z,44.33
2023-02-06T21:39:50.712Z,46.88
2023-02-06T21:41:58.561Z,41.22
2023-02-06T21:44:05.946Z,39.22
2023-02-06T21:46:13.934Z,40.05
2023-02-06T21:48:21.129Z,41.80
2023-02-06T21:50:28.004Z,47.00
2023-02-06T21:52:37.594Z,47.42
2023-02-06T21:54:44.518Z,49.15
2023-02-06T21:56:54.006Z,54.90
2023-02-06T21:59:01.245Z,54.80
2023-02-06T22:01:09.177Z,55.28
2023-02-06T22:03:17.085Z,67.63
2023-02-06T22:05:24.214Z,68.35
2023-02-06T22:07:31.142Z,60.78
2023-02-06T22:09:38.325Z,63.35
2023-02-06T22:11:46.274Z,67.47
2023-02-06T22:13:56.153Z,65.45
2023-02-06T22:16:02.965Z,63.65
2023-02-06T22:18:11.251Z,64.63
2023-02-06T22:20:18.639Z,59.75
2023-02-06T22:22:25.868Z,60.60
2023-02-06T22:24:32.792Z,59.05
2023-02-06T22:26:42.535Z,59.28
2023-02-06T22:28:50.023Z,59.35
2023-02-06T22:30:58.952Z,58.60
2023-02-06T22:33:05.868Z,57.72
2023-02-06T22:35:13.102Z,57.45
2023-02-06T22:37:19.972Z,58.80
2023-02-06T22:39:27.052Z,57.72
2023-02-06T22:41:34.081Z,58.42
2023-02-06T22:43:42.083Z,58.47
2023-02-06T22:45:52.080Z,59.40
2023-02-06T22:48:01.103Z,59.30
2023-02-06T22:50:08.719Z,59.08
2023-02-06T22:52:28.684Z,56.95
2023-02-06T22:54:35.960Z,58.88
2023-02-06T22:56:43.665Z,57.20
2023-02-06T22:58:51.350Z,54.67
2023-02-06T23:01:05.734Z,53.60
2023-02-06T23:03:14.619Z,54.47
2023-02-06T23:05:21.649Z,53.83
2023-02-06T23:07:29.139Z,51.33
2023-02-06T23:09:37.447Z,50.85
2023-02-06T23:11:44.684Z,52.63
2023-02-06T23:13:56.114Z,54.05
2023-02-06T23:16:03.512Z,53.70
2023-02-06T23:18:10.373Z,55.95
2023-02-06T23:20:19.452Z,53.58
2023-02-06T23:22:26.428Z,52.55
2023-02-06T23:24:33.590Z,48.88
2023-02-06T23:26:40.848Z,49.83
2023-02-06T23:28:48.229Z,50.55
2023-02-06T23:30:55.668Z,50.00
2023-02-06T23:33:02.847Z,50.92
2023-02-06T23:35:10.285Z,51.05
2023-02-06T23:37:19.414Z,50.35
2023-02-06T23:39:26.233Z,49.35
2023-02-06T23:41:33.448Z,50.22
2023-02-06T23:43:40.750Z,50.47
2023-02-06T23:45:47.919Z,52.50
2023-02-06T23:47:55.273Z,53.03
2023-02-06T23:50:02.550Z,53.95
2023-02-06T23:52:09.782Z,54.17
2023-02-06T23:54:18.447Z,48.95
2023-02-06T23:56:26.706Z,47.72
2023-02-06T23:58:33.992Z,47.40
